sensor_id;sensor_type;location;lat;lon;timestamp;P1;durP1;ratioP1;P2;durP2;ratioP2
57551;SDS011;43379;48.160;14.036;2022-09-13T00:00:38;8.03;;;7.33;;
57551;SDS011;43379;48.160;14.036;2022-09-13T00:03:05;7.30;;;6.70;;
57551;SDS011;43379;48.160;14.036;2022-09-13T00:05:32;8.37;;;7.60;;
57551;SDS011;43379;48.160;14.036;2022-09-13T00:07:58;6.90;;;6.30;;
57551;SDS011;43379;48.160;14.036;2022-09-13T00:10:24;7.60;;;6.90;;
57551;SDS011;43379;48.160;14.036;2022-09-13T00:12:51;7.40;;;6.80;;
57551;SDS011;43379;48.160;14.036;2022-09-13T00:15:18;7.50;;;6.43;;
57551;SDS011;43379;48.160;14.036;2022-09-13T00:17:44;6.40;;;5.80;;
57551;SDS011;43379;48.160;14.036;2022-09-13T00:20:09;7.43;;;6.80;;
57551;SDS011;43379;48.160;14.036;2022-09-13T00:22:35;7.60;;;6.93;;
57551;SDS011;43379;48.160;14.036;2022-09-13T00:25:04;7.87;;;7.27;;
57551;SDS011;43379;48.160;14.036;2022-09-13T00:27:32;7.30;;;6.70;;
57551;SDS011;43379;48.160;14.036;2022-09-13T00:29:59;7.10;;;6.50;;
57551;SDS011;43379;48.160;14.036;2022-09-13T00:32:24;7.27;;;6.77;;
57551;SDS011;43379;48.160;14.036;2022-09-13T00:34:50;7.43;;;6.83;;
57551;SDS011;43379;48.160;14.036;2022-09-13T00:37:16;7.87;;;7.20;;
57551;SDS011;43379;48.160;14.036;2022-09-13T00:39:42;6.97;;;6.40;;
57551;SDS011;43379;48.160;14.036;2022-09-13T00:42:11;8.00;;;7.40;;
57551;SDS011;43379;48.160;14.036;2022-09-13T00:48:12;7.43;;;6.93;;
57551;SDS011;43379;48.160;14.036;2022-09-13T00:50:34;6.80;;;6.30;;
57551;SDS011;43379;48.160;14.036;2022-09-13T00:53:08;8.73;;;8.03;;
57551;SDS011;43379;48.160;14.036;2022-09-13T00:56:08;7.10;;;6.50;;
57551;SDS011;43379;48.160;14.036;2022-09-13T00:58:43;8.40;;;7.70;;
57551;SDS011;43379;48.160;14.036;2022-09-13T01:01:14;7.53;;;7.00;;
57551;SDS011;43379;48.160;14.036;2022-09-13T01:03:42;7.57;;;6.90;;
57551;SDS011;43379;48.160;14.036;2022-09-13T01:06:14;7.47;;;6.93;;
57551;SDS011;43379;48.160;14.036;2022-09-13T01:08:44;7.90;;;7.20;;
57551;SDS011;43379;48.160;14.036;2022-09-13T01:11:23;11.23;;;7.17;;
57551;SDS011;43379;48.160;14.036;2022-09-13T01:14:06;7.97;;;6.33;;
57551;SDS011;43379;48.160;14.036;2022-09-13T01:16:32;7.70;;;6.97;;
57551;SDS011;43379;48.160;14.036;2022-09-13T01:18:58;7.30;;;6.70;;
57551;SDS011;43379;48.160;14.036;2022-09-13T01:21:36;6.47;;;5.97;;
57551;SDS011;43379;48.160;14.036;2022-09-13T01:32:52;6.60;;;6.10;;
57551;SDS011;43379;48.160;14.036;2022-09-13T01:43:48;7.00;;;6.50;;
57551;SDS011;43379;48.160;14.036;2022-09-13T01:49:18;7.30;;;6.60;;
57551;SDS011;43379;48.160;14.036;2022-09-13T01:51:55;6.10;;;5.60;;
57551;SDS011;43379;48.160;14.036;2022-09-13T01:57:45;5.90;;;5.50;;
57551;SDS011;43379;48.160;14.036;2022-09-13T02:00:19;6.70;;;6.20;;
57551;SDS011;43379;48.160;14.036;2022-09-13T02:02:53;6.80;;;6.20;;
57551;SDS011;43379;48.160;14.036;2022-09-13T02:05:37;6.93;;;6.30;;
57551;SDS011;43379;48.160;14.036;2022-09-13T02:08:12;6.40;;;5.90;;
57551;SDS011;43379;48.160;14.036;2022-09-13T02:10:47;6.60;;;6.00;;
57551;SDS011;43379;48.160;14.036;2022-09-13T02:13:21;6.33;;;5.73;;
57551;SDS011;43379;48.160;14.036;2022-09-13T02:15:58;6.23;;;5.80;;
57551;SDS011;43379;48.160;14.036;2022-09-13T02:18:33;6.60;;;6.10;;
57551;SDS011;43379;48.160;14.036;2022-09-13T02:21:12;7.27;;;6.23;;
57551;SDS011;43379;48.160;14.036;2022-09-13T02:23:53;7.07;;;6.33;;
57551;SDS011;43379;48.160;14.036;2022-09-13T02:26:25;5.97;;;5.47;;
57551;SDS011;43379;48.160;14.036;2022-09-13T02:28:53;6.83;;;5.43;;
57551;SDS011;43379;48.160;14.036;2022-09-13T02:33:58;7.50;;;5.73;;
57551;SDS011;43379;48.160;14.036;2022-09-13T02:36:28;6.87;;;6.30;;
57551;SDS011;43379;48.160;14.036;2022-09-13T02:39:02;6.07;;;5.67;;
57551;SDS011;43379;48.160;14.036;2022-09-13T02:44:34;6.63;;;6.03;;
57551;SDS011;43379;48.160;14.036;2022-09-13T02:49:48;6.20;;;5.70;;
57551;SDS011;43379;48.160;14.036;2022-09-13T02:52:37;5.90;;;5.50;;
57551;SDS011;43379;48.160;14.036;2022-09-13T02:57:49;5.87;;;5.37;;
57551;SDS011;43379;48.160;14.036;2022-09-13T03:00:26;6.83;;;5.33;;
57551;SDS011;43379;48.160;14.036;2022-09-13T03:02:53;6.00;;;5.60;;
57551;SDS011;43379;48.160;14.036;2022-09-13T03:05:20;12.03;;;5.20;;
57551;SDS011;43379;48.160;14.036;2022-09-13T03:07:47;5.33;;;4.93;;
57551;SDS011;43379;48.160;14.036;2022-09-13T03:10:13;6.23;;;5.83;;
57551;SDS011;43379;48.160;14.036;2022-09-13T03:18:46;6.67;;;6.17;;
57551;SDS011;43379;48.160;14.036;2022-09-13T03:29:45;6.10;;;5.50;;
57551;SDS011;43379;48.160;14.036;2022-09-13T03:43:42;7.63;;;5.90;;
57551;SDS011;43379;48.160;14.036;2022-09-13T03:45:51;6.87;;;5.10;;
57551;SDS011;43379;48.160;14.036;2022-09-13T03:48:23;6.20;;;5.70;;
57551;SDS011;43379;48.160;14.036;2022-09-13T03:50:52;6.97;;;6.43;;
57551;SDS011;43379;48.160;14.036;2022-09-13T03:53:19;6.30;;;5.80;;
57551;SDS011;43379;48.160;14.036;2022-09-13T03:55:51;7.03;;;6.43;;
57551;SDS011;43379;48.160;14.036;2022-09-13T03:58:20;7.10;;;6.60;;
57551;SDS011;43379;48.160;14.036;2022-09-13T04:00:46;6.90;;;6.40;;
57551;SDS011;43379;48.160;14.036;2022-09-13T04:03:13;6.83;;;6.33;;
57551;SDS011;43379;48.160;14.036;2022-09-13T04:05:39;6.07;;;5.67;;
57551;SDS011;43379;48.160;14.036;2022-09-13T04:08:05;7.20;;;5.60;;
57551;SDS011;43379;48.160;14.036;2022-09-13T04:10:33;6.53;;;5.93;;
57551;SDS011;43379;48.160;14.036;2022-09-13T04:13:00;5.97;;;5.57;;
57551;SDS011;43379;48.160;14.036;2022-09-13T04:15:27;5.40;;;5.00;;
57551;SDS011;43379;48.160;14.036;2022-09-13T04:17:53;5.30;;;4.90;;
57551;SDS011;43379;48.160;14.036;2022-09-13T04:20:19;6.90;;;6.40;;
57551;SDS011;43379;48.160;14.036;2022-09-13T04:22:51;5.90;;;5.50;;
57551;SDS011;43379;48.160;14.036;2022-09-13T04:25:18;5.37;;;4.97;;
57551;SDS011;43379;48.160;14.036;2022-09-13T04:27:44;4.67;;;4.27;;
57551;SDS011;43379;48.160;14.036;2022-09-13T04:30:10;5.53;;;5.13;;
57551;SDS011;43379;48.160;14.036;2022-09-13T04:32:36;5.10;;;4.70;;
57551;SDS011;43379;48.160;14.036;2022-09-13T04:35:02;5.77;;;5.27;;
57551;SDS011;43379;48.160;14.036;2022-09-13T04:37:28;5.67;;;5.20;;
57551;SDS011;43379;48.160;14.036;2022-09-13T04:39:54;5.37;;;4.87;;
57551;SDS011;43379;48.160;14.036;2022-09-13T04:42:19;5.10;;;4.70;;
57551;SDS011;43379;48.160;14.036;2022-09-13T04:44:45;5.60;;;5.20;;
57551;SDS011;43379;48.160;14.036;2022-09-13T04:47:14;5.23;;;4.83;;
57551;SDS011;43379;48.160;14.036;2022-09-13T04:49:39;6.10;;;5.60;;
57551;SDS011;43379;48.160;14.036;2022-09-13T04:52:05;5.63;;;5.17;;
57551;SDS011;43379;48.160;14.036;2022-09-13T04:54:30;5.20;;;4.70;;
57551;SDS011;43379;48.160;14.036;2022-09-13T04:56:56;4.60;;;4.30;;
57551;SDS011;43379;48.160;14.036;2022-09-13T04:59:22;5.70;;;4.60;;
57551;SDS011;43379;48.160;14.036;2022-09-13T05:01:47;5.87;;;5.37;;
57551;SDS011;43379;48.160;14.036;2022-09-13T05:04:13;9.00;;;5.63;;
57551;SDS011;43379;48.160;14.036;2022-09-13T05:06:39;5.77;;;5.27;;
57551;SDS011;43379;48.160;14.036;2022-09-13T05:09:04;5.70;;;5.20;;
57551;SDS011;43379;48.160;14.036;2022-09-13T05:11:30;5.50;;;5.10;;
57551;SDS011;43379;48.160;14.036;2022-09-13T05:13:57;5.70;;;5.23;;
57551;SDS011;43379;48.160;14.036;2022-09-13T05:16:24;12.77;;;5.90;;
57551;SDS011;43379;48.160;14.036;2022-09-13T05:18:51;5.80;;;5.20;;
57551;SDS011;43379;48.160;14.036;2022-09-13T05:21:17;7.30;;;5.60;;
57551;SDS011;43379;48.160;14.036;2022-09-13T05:23:44;7.50;;;6.80;;
57551;SDS011;43379;48.160;14.036;2022-09-13T05:26:12;13.13;;;6.70;;
57551;SDS011;43379;48.160;14.036;2022-09-13T05:28:38;7.70;;;6.90;;
57551;SDS011;43379;48.160;14.036;2022-09-13T05:31:05;8.87;;;8.07;;
57551;SDS011;43379;48.160;14.036;2022-09-13T05:33:35;9.83;;;8.83;;
57551;SDS011;43379;48.160;14.036;2022-09-13T05:36:03;9.00;;;8.20;;
57551;SDS011;43379;48.160;14.036;2022-09-13T05:38:29;7.40;;;6.73;;
57551;SDS011;43379;48.160;14.036;2022-09-13T05:40:59;7.17;;;6.40;;
57551;SDS011;43379;48.160;14.036;2022-09-13T05:43:27;7.17;;;6.57;;
57551;SDS011;43379;48.160;14.036;2022-09-13T05:46:04;7.90;;;7.10;;
57551;SDS011;43379;48.160;14.036;2022-09-13T05:48:31;7.47;;;6.77;;
57551;SDS011;43379;48.160;14.036;2022-09-13T05:53:35;10.37;;;7.33;;
57551;SDS011;43379;48.160;14.036;2022-09-13T05:56:03;7.23;;;6.50;;
57551;SDS011;43379;48.160;14.036;2022-09-13T05:58:30;8.00;;;6.90;;
57551;SDS011;43379;48.160;14.036;2022-09-13T06:00:56;8.03;;;7.20;;
57551;SDS011;43379;48.160;14.036;2022-09-13T06:03:22;8.80;;;6.60;;
57551;SDS011;43379;48.160;14.036;2022-09-13T06:05:49;10.97;;;6.90;;
57551;SDS011;43379;48.160;14.036;2022-09-13T06:08:18;7.73;;;6.93;;
57551;SDS011;43379;48.160;14.036;2022-09-13T06:10:51;7.33;;;6.63;;
57551;SDS011;43379;48.160;14.036;2022-09-13T06:13:21;6.50;;;5.90;;
57551;SDS011;43379;48.160;14.036;2022-09-13T06:15:47;8.80;;;7.30;;
57551;SDS011;43379;48.160;14.036;2022-09-13T06:18:13;7.80;;;6.27;;
57551;SDS011;43379;48.160;14.036;2022-09-13T06:20:39;8.53;;;7.07;;
57551;SDS011;43379;48.160;14.036;2022-09-13T06:23:04;9.30;;;7.97;;
57551;SDS011;43379;48.160;14.036;2022-09-13T06:25:30;7.83;;;7.07;;
57551;SDS011;43379;48.160;14.036;2022-09-13T06:27:56;8.07;;;6.97;;
57551;SDS011;43379;48.160;14.036;2022-09-13T06:30:22;9.43;;;8.53;;
57551;SDS011;43379;48.160;14.036;2022-09-13T06:32:47;12.70;;;8.10;;
57551;SDS011;43379;48.160;14.036;2022-09-13T06:35:13;9.77;;;6.77;;
57551;SDS011;43379;48.160;14.036;2022-09-13T06:37:40;8.83;;;8.03;;
57551;SDS011;43379;48.160;14.036;2022-09-13T06:40:06;11.47;;;7.93;;
57551;SDS011;43379;48.160;14.036;2022-09-13T06:42:33;10.90;;;8.60;;
57551;SDS011;43379;48.160;14.036;2022-09-13T06:44:59;14.57;;;10.10;;
57551;SDS011;43379;48.160;14.036;2022-09-13T06:47:25;12.90;;;11.10;;
57551;SDS011;43379;48.160;14.036;2022-09-13T06:49:51;12.73;;;10.73;;
57551;SDS011;43379;48.160;14.036;2022-09-13T06:52:16;15.53;;;12.13;;
57551;SDS011;43379;48.160;14.036;2022-09-13T06:54:42;14.87;;;11.70;;
57551;SDS011;43379;48.160;14.036;2022-09-13T06:57:08;13.17;;;11.87;;
57551;SDS011;43379;48.160;14.036;2022-09-13T06:59:34;13.30;;;12.10;;
57551;SDS011;43379;48.160;14.036;2022-09-13T07:02:00;12.77;;;11.53;;
57551;SDS011;43379;48.160;14.036;2022-09-13T07:04:25;13.20;;;11.70;;
57551;SDS011;43379;48.160;14.036;2022-09-13T07:06:56;17.10;;;13.40;;
57551;SDS011;43379;48.160;14.036;2022-09-13T07:09:22;13.77;;;12.60;;
57551;SDS011;43379;48.160;14.036;2022-09-13T07:11:49;14.30;;;13.00;;
57551;SDS011;43379;48.160;14.036;2022-09-13T07:14:20;17.00;;;12.70;;
57551;SDS011;43379;48.160;14.036;2022-09-13T07:16:48;15.30;;;13.80;;
57551;SDS011;43379;48.160;14.036;2022-09-13T07:19:16;13.80;;;12.60;;
57551;SDS011;43379;48.160;14.036;2022-09-13T07:21:44;14.80;;;13.30;;
57551;SDS011;43379;48.160;14.036;2022-09-13T07:24:10;15.53;;;14.03;;
57551;SDS011;43379;48.160;14.036;2022-09-13T07:26:36;14.83;;;13.33;;
57551;SDS011;43379;48.160;14.036;2022-09-13T07:29:04;13.70;;;12.60;;
57551;SDS011;43379;48.160;14.036;2022-09-13T07:33:57;14.30;;;13.00;;
57551;SDS011;43379;48.160;14.036;2022-09-13T07:36:24;14.43;;;13.13;;
57551;SDS011;43379;48.160;14.036;2022-09-13T07:38:51;15.63;;;14.23;;
57551;SDS011;43379;48.160;14.036;2022-09-13T07:41:18;14.70;;;13.37;;
57551;SDS011;43379;48.160;14.036;2022-09-13T07:43:45;15.13;;;13.80;;
57551;SDS011;43379;48.160;14.036;2022-09-13T07:46:12;15.63;;;14.30;;
57551;SDS011;43379;48.160;14.036;2022-09-13T07:48:43;14.30;;;13.10;;
57551;SDS011;43379;48.160;14.036;2022-09-13T07:51:15;15.07;;;13.77;;
57551;SDS011;43379;48.160;14.036;2022-09-13T07:53:45;13.93;;;12.53;;
57551;SDS011;43379;48.160;14.036;2022-09-13T07:56:12;12.13;;;11.13;;
57551;SDS011;43379;48.160;14.036;2022-09-13T07:58:43;14.60;;;13.30;;
57551;SDS011;43379;48.160;14.036;2022-09-13T08:01:20;13.43;;;12.23;;
57551;SDS011;43379;48.160;14.036;2022-09-13T08:03:51;11.87;;;10.97;;
57551;SDS011;43379;48.160;14.036;2022-09-13T08:06:18;14.40;;;13.23;;
57551;SDS011;43379;48.160;14.036;2022-09-13T08:08:44;12.97;;;11.80;;
57551;SDS011;43379;48.160;14.036;2022-09-13T08:11:12;15.00;;;13.90;;
57551;SDS011;43379;48.160;14.036;2022-09-13T08:13:43;14.00;;;12.90;;
57551;SDS011;43379;48.160;14.036;2022-09-13T08:16:10;16.30;;;14.63;;
57551;SDS011;43379;48.160;14.036;2022-09-13T08:18:36;13.67;;;12.57;;
57551;SDS011;43379;48.160;14.036;2022-09-13T08:21:01;13.00;;;11.90;;
57551;SDS011;43379;48.160;14.036;2022-09-13T08:23:27;13.70;;;12.60;;
57551;SDS011;43379;48.160;14.036;2022-09-13T08:25:53;14.17;;;12.97;;
57551;SDS011;43379;48.160;14.036;2022-09-13T08:28:24;13.70;;;12.50;;
57551;SDS011;43379;48.160;14.036;2022-09-13T08:30:49;12.43;;;11.30;;
57551;SDS011;43379;48.160;14.036;2022-09-13T08:33:15;14.13;;;12.93;;
57551;SDS011;43379;48.160;14.036;2022-09-13T08:35:48;12.57;;;11.43;;
57551;SDS011;43379;48.160;14.036;2022-09-13T08:38:15;12.60;;;11.50;;
57551;SDS011;43379;48.160;14.036;2022-09-13T08:40:42;14.03;;;12.10;;
57551;SDS011;43379;48.160;14.036;2022-09-13T08:43:34;13.67;;;12.47;;
57551;SDS011;43379;48.160;14.036;2022-09-13T08:52:05;12.03;;;10.97;;
57551;SDS011;43379;48.160;14.036;2022-09-13T08:54:39;11.10;;;10.30;;
57551;SDS011;43379;48.160;14.036;2022-09-13T09:05:05;13.03;;;12.00;;
57551;SDS011;43379;48.160;14.036;2022-09-13T09:07:55;11.10;;;10.23;;
57551;SDS011;43379;48.160;14.036;2022-09-13T09:10:44;11.67;;;10.60;;
57551;SDS011;43379;48.160;14.036;2022-09-13T09:13:35;12.87;;;11.87;;
57551;SDS011;43379;48.160;14.036;2022-09-13T09:16:41;12.53;;;11.43;;
57551;SDS011;43379;48.160;14.036;2022-09-13T09:21:51;12.10;;;10.90;;
57551;SDS011;43379;48.160;14.036;2022-09-13T09:24:18;11.90;;;10.90;;
57551;SDS011;43379;48.160;14.036;2022-09-13T09:26:49;11.33;;;10.43;;
57551;SDS011;43379;48.160;14.036;2022-09-13T09:29:19;11.20;;;10.20;;
57551;SDS011;43379;48.160;14.036;2022-09-13T09:34:27;11.30;;;10.50;;
57551;SDS011;43379;48.160;14.036;2022-09-13T09:39:38;9.10;;;8.33;;
57551;SDS011;43379;48.160;14.036;2022-09-13T09:42:09;11.07;;;9.80;;
57551;SDS011;43379;48.160;14.036;2022-09-13T09:44:42;10.47;;;9.47;;
57551;SDS011;43379;48.160;14.036;2022-09-13T09:47:17;10.77;;;9.90;;
57551;SDS011;43379;48.160;14.036;2022-09-13T09:49:50;11.33;;;10.43;;
57551;SDS011;43379;48.160;14.036;2022-09-13T09:56:11;11.23;;;10.20;;
57551;SDS011;43379;48.160;14.036;2022-09-13T09:58:06;10.73;;;9.73;;
57551;SDS011;43379;48.160;14.036;2022-09-13T10:00:33;9.30;;;8.60;;
57551;SDS011;43379;48.160;14.036;2022-09-13T10:05:41;8.63;;;7.83;;
57551;SDS011;43379;48.160;14.036;2022-09-13T10:08:07;9.30;;;8.40;;
57551;SDS011;43379;48.160;14.036;2022-09-13T10:10:52;9.20;;;8.40;;
57551;SDS011;43379;48.160;14.036;2022-09-13T10:13:20;10.47;;;9.50;;
57551;SDS011;43379;48.160;14.036;2022-09-13T10:18:23;8.90;;;8.20;;
57551;SDS011;43379;48.160;14.036;2022-09-13T10:21:04;9.20;;;8.40;;
57551;SDS011;43379;48.160;14.036;2022-09-13T10:23:35;9.23;;;8.53;;
57551;SDS011;43379;48.160;14.036;2022-09-13T10:26:02;10.33;;;9.53;;
57551;SDS011;43379;48.160;14.036;2022-09-13T10:31:32;10.00;;;9.20;;
57551;SDS011;43379;48.160;14.036;2022-09-13T10:34:23;8.50;;;7.80;;
57551;SDS011;43379;48.160;14.036;2022-09-13T10:36:52;8.43;;;7.63;;
57551;SDS011;43379;48.160;14.036;2022-09-13T10:39:38;8.47;;;7.87;;
57551;SDS011;43379;48.160;14.036;2022-09-13T10:42:21;9.73;;;8.93;;
57551;SDS011;43379;48.160;14.036;2022-09-13T10:44:56;8.47;;;7.77;;
57551;SDS011;43379;48.160;14.036;2022-09-13T10:47:24;7.93;;;7.13;;
57551;SDS011;43379;48.160;14.036;2022-09-13T10:49:57;8.90;;;8.10;;
57551;SDS011;43379;48.160;14.036;2022-09-13T10:52:44;9.50;;;8.70;;
57551;SDS011;43379;48.160;14.036;2022-09-13T10:57:44;9.47;;;8.77;;
57551;SDS011;43379;48.160;14.036;2022-09-13T11:00:12;8.97;;;8.03;;
57551;SDS011;43379;48.160;14.036;2022-09-13T11:05:17;9.47;;;8.60;;
57551;SDS011;43379;48.160;14.036;2022-09-13T11:13:38;8.03;;;7.43;;
57551;SDS011;43379;48.160;14.036;2022-09-13T11:24:56;12.57;;;6.50;;
57551;SDS011;43379;48.160;14.036;2022-09-13T11:27:49;6.57;;;5.97;;
57551;SDS011;43379;48.160;14.036;2022-09-13T11:30:24;7.00;;;6.40;;
57551;SDS011;43379;48.160;14.036;2022-09-13T11:40:46;6.73;;;6.20;;
57551;SDS011;43379;48.160;14.036;2022-09-13T11:46:26;7.80;;;5.87;;
57551;SDS011;43379;48.160;14.036;2022-09-13T11:54:56;6.00;;;5.50;;
57551;SDS011;43379;48.160;14.036;2022-09-13T11:57:25;6.77;;;6.20;;
57551;SDS011;43379;48.160;14.036;2022-09-13T12:00:51;7.30;;;6.70;;
57551;SDS011;43379;48.160;14.036;2022-09-13T12:05:59;9.27;;;6.60;;
57551;SDS011;43379;48.160;14.036;2022-09-13T12:08:45;5.00;;;4.63;;
57551;SDS011;43379;48.160;14.036;2022-09-13T12:11:18;6.93;;;5.77;;
57551;SDS011;43379;48.160;14.036;2022-09-13T12:13:56;7.47;;;6.87;;
57551;SDS011;43379;48.160;14.036;2022-09-13T12:16:29;6.07;;;5.60;;
57551;SDS011;43379;48.160;14.036;2022-09-13T12:18:59;7.93;;;6.80;;
57551;SDS011;43379;48.160;14.036;2022-09-13T12:21:31;8.70;;;6.30;;
57551;SDS011;43379;48.160;14.036;2022-09-13T12:24:03;6.53;;;5.40;;
57551;SDS011;43379;48.160;14.036;2022-09-13T12:27:05;7.23;;;5.57;;
57551;SDS011;43379;48.160;14.036;2022-09-13T12:29:56;5.43;;;5.03;;
57551;SDS011;43379;48.160;14.036;2022-09-13T12:32:47;5.83;;;5.33;;
57551;SDS011;43379;48.160;14.036;2022-09-13T12:41:06;5.60;;;5.20;;
57551;SDS011;43379;48.160;14.036;2022-09-13T12:44:00;5.43;;;4.93;;
57551;SDS011;43379;48.160;14.036;2022-09-13T12:46:47;5.30;;;4.80;;
57551;SDS011;43379;48.160;14.036;2022-09-13T13:00:24;5.90;;;5.50;;
57551;SDS011;43379;48.160;14.036;2022-09-13T13:05:30;5.87;;;5.10;;
57551;SDS011;43379;48.160;14.036;2022-09-13T13:08:41;5.27;;;4.83;;
57551;SDS011;43379;48.160;14.036;2022-09-13T13:11:04;5.70;;;5.20;;
57551;SDS011;43379;48.160;14.036;2022-09-13T13:13:36;5.50;;;5.00;;
57551;SDS011;43379;48.160;14.036;2022-09-13T13:16:26;4.50;;;4.10;;
57551;SDS011;43379;48.160;14.036;2022-09-13T13:18:53;5.83;;;5.33;;
57551;SDS011;43379;48.160;14.036;2022-09-13T13:29:13;6.47;;;5.90;;
57551;SDS011;43379;48.160;14.036;2022-09-13T13:39:38;6.53;;;5.00;;
57551;SDS011;43379;48.160;14.036;2022-09-13T13:42:37;5.60;;;5.10;;
57551;SDS011;43379;48.160;14.036;2022-09-13T13:58:03;7.17;;;4.93;;
57551;SDS011;43379;48.160;14.036;2022-09-13T14:00:44;6.83;;;5.60;;
57551;SDS011;43379;48.160;14.036;2022-09-13T14:11:55;5.67;;;5.20;;
57551;SDS011;43379;48.160;14.036;2022-09-13T14:17:32;8.47;;;5.20;;
57551;SDS011;43379;48.160;14.036;2022-09-13T14:20:08;6.40;;;4.60;;
57551;SDS011;43379;48.160;14.036;2022-09-13T14:22:36;5.17;;;4.77;;
57551;SDS011;43379;48.160;14.036;2022-09-13T14:25:13;5.43;;;5.03;;
57551;SDS011;43379;48.160;14.036;2022-09-13T14:27:47;5.40;;;4.90;;
57551;SDS011;43379;48.160;14.036;2022-09-13T14:30:17;5.97;;;5.23;;
57551;SDS011;43379;48.160;14.036;2022-09-13T14:32:52;6.07;;;5.40;;
57551;SDS011;43379;48.160;14.036;2022-09-13T14:35:40;5.83;;;4.70;;
57551;SDS011;43379;48.160;14.036;2022-09-13T14:38:09;6.40;;;5.60;;
57551;SDS011;43379;48.160;14.036;2022-09-13T14:40:58;5.40;;;4.90;;
57551;SDS011;43379;48.160;14.036;2022-09-13T14:43:27;5.67;;;5.27;;
57551;SDS011;43379;48.160;14.036;2022-09-13T14:48:39;4.83;;;4.40;;
57551;SDS011;43379;48.160;14.036;2022-09-13T14:53:49;5.20;;;4.73;;
57551;SDS011;43379;48.160;14.036;2022-09-13T14:56:31;5.73;;;5.07;;
57551;SDS011;43379;48.160;14.036;2022-09-13T14:59:02;7.20;;;5.60;;
57551;SDS011;43379;48.160;14.036;2022-09-13T15:01:33;5.53;;;5.13;;
57551;SDS011;43379;48.160;14.036;2022-09-13T15:04:00;6.43;;;5.10;;
57551;SDS011;43379;48.160;14.036;2022-09-13T15:06:37;6.70;;;6.10;;
57551;SDS011;43379;48.160;14.036;2022-09-13T15:16:53;5.37;;;4.87;;
57551;SDS011;43379;48.160;14.036;2022-09-13T15:19:35;5.67;;;5.10;;
57551;SDS011;43379;48.160;14.036;2022-09-13T15:22:10;5.73;;;5.30;;
57551;SDS011;43379;48.160;14.036;2022-09-13T15:24:57;6.30;;;5.60;;
57551;SDS011;43379;48.160;14.036;2022-09-13T15:27:29;5.40;;;4.87;;
57551;SDS011;43379;48.160;14.036;2022-09-13T15:30:18;6.03;;;5.23;;
57551;SDS011;43379;48.160;14.036;2022-09-13T15:35:38;5.77;;;5.30;;
57551;SDS011;43379;48.160;14.036;2022-09-13T15:41:02;6.70;;;5.57;;
57551;SDS011;43379;48.160;14.036;2022-09-13T15:43:47;7.87;;;7.13;;
57551;SDS011;43379;48.160;14.036;2022-09-13T15:46:13;6.63;;;6.13;;
57551;SDS011;43379;48.160;14.036;2022-09-13T15:48:42;7.40;;;6.70;;
57551;SDS011;43379;48.160;14.036;2022-09-13T15:51:15;6.23;;;5.73;;
57551;SDS011;43379;48.160;14.036;2022-09-13T15:53:41;5.73;;;5.23;;
57551;SDS011;43379;48.160;14.036;2022-09-13T15:56:11;5.90;;;5.03;;
57551;SDS011;43379;48.160;14.036;2022-09-13T15:58:39;5.67;;;5.27;;
57551;SDS011;43379;48.160;14.036;2022-09-13T16:01:05;4.60;;;4.30;;
57551;SDS011;43379;48.160;14.036;2022-09-13T16:03:30;6.27;;;5.67;;
57551;SDS011;43379;48.160;14.036;2022-09-13T16:05:56;8.87;;;4.97;;
57551;SDS011;43379;48.160;14.036;2022-09-13T16:08:23;9.17;;;5.23;;
57551;SDS011;43379;48.160;14.036;2022-09-13T16:10:49;6.63;;;6.03;;
57551;SDS011;43379;48.160;14.036;2022-09-13T16:13:15;6.30;;;5.80;;
57551;SDS011;43379;48.160;14.036;2022-09-13T16:15:41;7.40;;;5.97;;
57551;SDS011;43379;48.160;14.036;2022-09-13T16:18:07;5.43;;;4.73;;
57551;SDS011;43379;48.160;14.036;2022-09-13T16:20:33;12.70;;;6.20;;
57551;SDS011;43379;48.160;14.036;2022-09-13T16:22:59;6.97;;;6.20;;
57551;SDS011;43379;48.160;14.036;2022-09-13T16:25:24;7.57;;;6.10;;
57551;SDS011;43379;48.160;14.036;2022-09-13T16:27:50;6.10;;;5.60;;
57551;SDS011;43379;48.160;14.036;2022-09-13T16:30:18;6.57;;;6.00;;
57551;SDS011;43379;48.160;14.036;2022-09-13T16:32:46;6.77;;;6.23;;
57551;SDS011;43379;48.160;14.036;2022-09-13T16:35:12;7.17;;;5.63;;
57551;SDS011;43379;48.160;14.036;2022-09-13T16:37:41;6.47;;;5.40;;
57551;SDS011;43379;48.160;14.036;2022-09-13T16:40:07;6.70;;;5.93;;
57551;SDS011;43379;48.160;14.036;2022-09-13T16:42:34;6.00;;;5.50;;
57551;SDS011;43379;48.160;14.036;2022-09-13T16:45:00;6.40;;;5.80;;
57551;SDS011;43379;48.160;14.036;2022-09-13T16:47:26;6.50;;;5.90;;
57551;SDS011;43379;48.160;14.036;2022-09-13T16:49:51;6.87;;;6.10;;
57551;SDS011;43379;48.160;14.036;2022-09-13T16:52:17;7.50;;;6.80;;
57551;SDS011;43379;48.160;14.036;2022-09-13T16:54:43;7.63;;;7.03;;
57551;SDS011;43379;48.160;14.036;2022-09-13T16:57:13;8.40;;;7.70;;
57551;SDS011;43379;48.160;14.036;2022-09-13T16:59:39;7.37;;;6.77;;
57551;SDS011;43379;48.160;14.036;2022-09-13T17:02:09;6.17;;;5.33;;
57551;SDS011;43379;48.160;14.036;2022-09-13T17:04:35;6.53;;;5.93;;
57551;SDS011;43379;48.160;14.036;2022-09-13T17:07:01;7.70;;;6.60;;
57551;SDS011;43379;48.160;14.036;2022-09-13T17:09:29;7.50;;;6.70;;
57551;SDS011;43379;48.160;14.036;2022-09-13T17:11:56;7.60;;;6.90;;
57551;SDS011;43379;48.160;14.036;2022-09-13T17:14:22;8.70;;;6.57;;
57551;SDS011;43379;48.160;14.036;2022-09-13T17:16:51;7.90;;;7.20;;
57551;SDS011;43379;48.160;14.036;2022-09-13T17:19:19;7.23;;;6.50;;
57551;SDS011;43379;48.160;14.036;2022-09-13T17:21:47;7.30;;;6.60;;
57551;SDS011;43379;48.160;14.036;2022-09-13T17:24:14;6.97;;;6.30;;
57551;SDS011;43379;48.160;14.036;2022-09-13T17:26:40;8.00;;;7.40;;
57551;SDS011;43379;48.160;14.036;2022-09-13T17:29:07;8.40;;;7.70;;
57551;SDS011;43379;48.160;14.036;2022-09-13T17:31:35;8.03;;;7.17;;
57551;SDS011;43379;48.160;14.036;2022-09-13T17:34:01;8.53;;;7.03;;
57551;SDS011;43379;48.160;14.036;2022-09-13T17:36:27;10.90;;;9.90;;
57551;SDS011;43379;48.160;14.036;2022-09-13T17:38:54;11.53;;;10.40;;
57551;SDS011;43379;48.160;14.036;2022-09-13T17:41:21;10.30;;;9.50;;
57551;SDS011;43379;48.160;14.036;2022-09-13T17:43:47;10.23;;;9.20;;
57551;SDS011;43379;48.160;14.036;2022-09-13T17:46:23;9.30;;;8.33;;
57551;SDS011;43379;48.160;14.036;2022-09-13T17:48:52;9.93;;;9.13;;
57551;SDS011;43379;48.160;14.036;2022-09-13T17:51:20;12.20;;;10.30;;
57551;SDS011;43379;48.160;14.036;2022-09-13T17:56:16;10.97;;;10.10;;
57551;SDS011;43379;48.160;14.036;2022-09-13T17:58:43;9.30;;;8.60;;
57551;SDS011;43379;48.160;14.036;2022-09-13T18:01:10;10.00;;;9.20;;
57551;SDS011;43379;48.160;14.036;2022-09-13T18:03:36;10.10;;;9.30;;
57551;SDS011;43379;48.160;14.036;2022-09-13T18:06:03;10.07;;;9.30;;
57551;SDS011;43379;48.160;14.036;2022-09-13T18:08:31;9.33;;;8.63;;
57551;SDS011;43379;48.160;14.036;2022-09-13T18:11:05;10.70;;;9.67;;
57551;SDS011;43379;48.160;14.036;2022-09-13T18:13:35;10.10;;;9.30;;
57551;SDS011;43379;48.160;14.036;2022-09-13T18:16:09;11.37;;;9.67;;
57551;SDS011;43379;48.160;14.036;2022-09-13T18:18:39;11.00;;;10.10;;
57551;SDS011;43379;48.160;14.036;2022-09-13T18:21:05;10.50;;;9.80;;
57551;SDS011;43379;48.160;14.036;2022-09-13T18:23:32;10.23;;;9.33;;
57551;SDS011;43379;48.160;14.036;2022-09-13T18:26:09;11.50;;;10.40;;
57551;SDS011;43379;48.160;14.036;2022-09-13T18:28:36;10.50;;;9.60;;
57551;SDS011;43379;48.160;14.036;2022-09-13T18:31:03;11.50;;;10.20;;